sensor_id;sensor_type;location;lat;lon;timestamp;pressure;altitude;pressure_sealevel;temperature;humidity
48622;BME280;34421;48.944;9.460;2022-12-29T00:02:01;98050.72;;;10.76;57.86
48622;BME280;34421;48.944;9.460;2022-12-29T00:04:26;98054.56;;;10.80;56.92
48622;BME280;34421;48.944;9.460;2022-12-29T00:06:52;98039.78;;;10.84;56.75
48622;BME280;34421;48.944;9.460;2022-12-29T00:09:18;98045.47;;;10.88;57.53
48622;BME280;34421;48.944;9.460;2022-12-29T00:11:43;98042.13;;;10.92;56.37
48622;BME280;34421;48.944;9.460;2022-12-29T00:14:10;98031.84;;;10.96;56.39
48622;BME280;34421;48.944;9.460;2022-12-29T00:16:54;98024.22;;;11.00;56.83
48622;BME280;34421;48.944;9.460;2022-12-29T00:19:20;98022.97;;;11.02;56.38
48622;BME280;34421;48.944;9.460;2022-12-29T00:22:04;98015.56;;;11.04;56.90
48622;BME280;34421;48.944;9.460;2022-12-29T00:24:56;98010.59;;;11.08;56.62
48622;BME280;34421;48.944;9.460;2022-12-29T00:27:40;98014.66;;;11.10;55.72
48622;BME280;34421;48.944;9.460;2022-12-29T00:30:24;98004.81;;;11.11;56.09
48622;BME280;34421;48.944;9.460;2022-12-29T00:33:13;98009.94;;;11.12;56.52
48622;BME280;34421;48.944;9.460;2022-12-29T00:36:01;97999.03;;;11.14;57.06
48622;BME280;34421;48.944;9.460;2022-12-29T00:38:27;98007.38;;;11.17;56.03
48622;BME280;34421;48.944;9.460;2022-12-29T00:41:11;98002.22;;;11.23;55.69
48622;BME280;34421;48.944;9.460;2022-12-29T00:43:55;98002.81;;;11.25;55.48
48622;BME280;34421;48.944;9.460;2022-12-29T00:46:31;97999.69;;;11.28;55.86
48622;BME280;34421;48.944;9.460;2022-12-29T00:48:56;98002.47;;;11.33;55.16
48622;BME280;34421;48.944;9.460;2022-12-29T00:51:40;97998.31;;;11.37;55.90
48622;BME280;34421;48.944;9.460;2022-12-29T00:54:05;97995.22;;;11.40;56.07
48622;BME280;34421;48.944;9.460;2022-12-29T00:56:31;98001.69;;;11.44;54.99
48622;BME280;34421;48.944;9.460;2022-12-29T00:59:07;97992.44;;;11.47;54.55
48622;BME280;34421;48.944;9.460;2022-12-29T01:01:33;98001.84;;;11.49;55.12
48622;BME280;34421;48.944;9.460;2022-12-29T01:03:59;98000.31;;;11.53;54.98
48622;BME280;34421;48.944;9.460;2022-12-29T01:06:24;98005.66;;;11.53;55.36
48622;BME280;34421;48.944;9.460;2022-12-29T01:08:50;97998.00;;;11.57;55.12
48622;BME280;34421;48.944;9.460;2022-12-29T01:11:36;98000.47;;;11.58;54.81
48622;BME280;34421;48.944;9.460;2022-12-29T01:14:01;97999.19;;;11.61;54.79
48622;BME280;34421;48.944;9.460;2022-12-29T01:16:27;98009.63;;;11.62;54.32
48622;BME280;34421;48.944;9.460;2022-12-29T01:18:52;98006.50;;;11.66;54.84
48622;BME280;34421;48.944;9.460;2022-12-29T01:21:17;98004.88;;;11.64;55.16
48622;BME280;34421;48.944;9.460;2022-12-29T01:23:42;98000.16;;;11.67;54.36
48622;BME280;34421;48.944;9.460;2022-12-29T01:26:12;98017.75;;;11.68;54.71
48622;BME280;34421;48.944;9.460;2022-12-29T01:28:38;98015.91;;;11.68;54.71
48622;BME280;34421;48.944;9.460;2022-12-29T01:31:05;98022.03;;;11.69;54.88
48622;BME280;34421;48.944;9.460;2022-12-29T01:33:31;98025.31;;;11.71;54.38
48622;BME280;34421;48.944;9.460;2022-12-29T01:36:07;98021.25;;;11.68;55.07
48622;BME280;34421;48.944;9.460;2022-12-29T01:38:34;98020.78;;;11.71;54.46
48622;BME280;34421;48.944;9.460;2022-12-29T01:41:00;98024.25;;;11.72;54.57
48622;BME280;34421;48.944;9.460;2022-12-29T01:43:54;98021.59;;;11.72;53.98
48622;BME280;34421;48.944;9.460;2022-12-29T01:46:37;98019.16;;;11.70;54.10
48622;BME280;34421;48.944;9.460;2022-12-29T01:49:16;98023.69;;;11.70;54.72
48622;BME280;34421;48.944;9.460;2022-12-29T01:51:50;98013.84;;;11.70;54.79
48622;BME280;34421;48.944;9.460;2022-12-29T01:54:22;98015.69;;;11.70;54.33
48622;BME280;34421;48.944;9.460;2022-12-29T01:56:51;98017.53;;;11.69;54.10
48622;BME280;34421;48.944;9.460;2022-12-29T01:59:20;98016.72;;;11.69;54.71
48622;BME280;34421;48.944;9.460;2022-12-29T02:01:48;98019.38;;;11.69;54.41
48622;BME280;34421;48.944;9.460;2022-12-29T02:04:13;98011.38;;;11.69;53.80
48622;BME280;34421;48.944;9.460;2022-12-29T02:06:53;98012.44;;;11.68;54.41
48622;BME280;34421;48.944;9.460;2022-12-29T02:09:21;98018.56;;;11.68;53.66
48622;BME280;34421;48.944;9.460;2022-12-29T02:11:47;98013.47;;;11.67;55.13
48622;BME280;34421;48.944;9.460;2022-12-29T02:14:13;98018.81;;;11.67;54.42
48622;BME280;34421;48.944;9.460;2022-12-29T02:28:02;97998.03;;;11.69;54.31
48622;BME280;34421;48.944;9.460;2022-12-29T02:30:42;97996.22;;;11.69;54.81
48622;BME280;34421;48.944;9.460;2022-12-29T02:33:33;97996.56;;;11.73;53.99
48622;BME280;34421;48.944;9.460;2022-12-29T02:36:09;97996.31;;;11.74;54.34
48622;BME280;34421;48.944;9.460;2022-12-29T02:39:23;97997.13;;;11.75;53.94
48622;BME280;34421;48.944;9.460;2022-12-29T02:41:32;97990.78;;;11.76;53.78
48622;BME280;34421;48.944;9.460;2022-12-29T02:44:30;97995.06;;;11.77;54.69
48622;BME280;34421;48.944;9.460;2022-12-29T02:47:14;97987.06;;;11.77;54.10
48622;BME280;34421;48.944;9.460;2022-12-29T02:50:03;97987.66;;;11.79;54.15
48622;BME280;34421;48.944;9.460;2022-12-29T02:52:39;97985.56;;;11.81;53.68
48622;BME280;34421;48.944;9.460;2022-12-29T02:55:10;97981.59;;;11.83;54.23
48622;BME280;34421;48.944;9.460;2022-12-29T02:57:36;97983.47;;;11.83;53.96
48622;BME280;34421;48.944;9.460;2022-12-29T03:00:13;97988.59;;;11.84;53.53
48622;BME280;34421;48.944;9.460;2022-12-29T03:13:37;97986.88;;;11.90;54.39
48622;BME280;34421;48.944;9.460;2022-12-29T03:16:28;97990.13;;;11.92;53.89
48622;BME280;34421;48.944;9.460;2022-12-29T03:19:04;97981.09;;;11.93;53.38
48622;BME280;34421;48.944;9.460;2022-12-29T03:21:38;97979.22;;;11.94;54.21
48622;BME280;34421;48.944;9.460;2022-12-29T03:24:32;97981.44;;;11.97;54.39
48622;BME280;34421;48.944;9.460;2022-12-29T03:27:01;97979.56;;;11.97;53.68
48622;BME280;34421;48.944;9.460;2022-12-29T03:29:29;97968.44;;;12.00;54.01
48622;BME280;34421;48.944;9.460;2022-12-29T03:31:58;97969.03;;;12.02;53.90
48622;BME280;34421;48.944;9.460;2022-12-29T03:34:25;97958.91;;;12.04;53.21
48622;BME280;34421;48.944;9.460;2022-12-29T03:36:54;97957.88;;;12.05;53.59
48622;BME280;34421;48.944;9.460;2022-12-29T03:39:22;97967.50;;;12.06;53.65
48622;BME280;34421;48.944;9.460;2022-12-29T03:41:52;97964.84;;;12.06;53.92
48622;BME280;34421;48.944;9.460;2022-12-29T03:44:18;97954.97;;;12.07;53.58
48622;BME280;34421;48.944;9.460;2022-12-29T03:46:44;97960.91;;;12.09;53.25
48622;BME280;34421;48.944;9.460;2022-12-29T03:49:09;97959.03;;;12.09;53.72
48622;BME280;34421;48.944;9.460;2022-12-29T03:51:34;97964.97;;;12.12;53.93
48622;BME280;34421;48.944;9.460;2022-12-29T03:54:00;97961.25;;;12.13;53.66
48622;BME280;34421;48.944;9.460;2022-12-29T03:56:25;97951.63;;;12.12;53.58
48622;BME280;34421;48.944;9.460;2022-12-29T03:58:50;97951.63;;;12.12;52.60
48622;BME280;34421;48.944;9.460;2022-12-29T04:01:16;97949.75;;;12.12;53.60
48622;BME280;34421;48.944;9.460;2022-12-29T04:03:41;97955.91;;;12.13;52.94
48622;BME280;34421;48.944;9.460;2022-12-29T04:06:06;97958.56;;;12.13;53.10
48622;BME280;34421;48.944;9.460;2022-12-29T04:08:32;97958.56;;;12.13;53.75
48622;BME280;34421;48.944;9.460;2022-12-29T04:10:58;97964.16;;;12.11;54.27
48622;BME280;34421;48.944;9.460;2022-12-29T04:13:23;97951.63;;;12.12;53.43
48622;BME280;34421;48.944;9.460;2022-12-29T04:15:48;97954.28;;;12.12;53.31
48622;BME280;34421;48.944;9.460;2022-12-29T04:18:13;97958.00;;;12.11;53.47
48622;BME280;34421;48.944;9.460;2022-12-29T04:20:39;97964.38;;;12.09;54.27
48622;BME280;34421;48.944;9.460;2022-12-29T04:23:23;97957.41;;;12.08;53.29
48622;BME280;34421;48.944;9.460;2022-12-29T04:25:48;97957.41;;;12.08;53.29
48622;BME280;34421;48.944;9.460;2022-12-29T04:28:15;97974.81;;;12.11;53.33
48622;BME280;34421;48.944;9.460;2022-12-29T04:30:41;97979.34;;;12.11;53.56
48622;BME280;34421;48.944;9.460;2022-12-29T04:33:07;97979.91;;;12.13;53.42
48622;BME280;34421;48.944;9.460;2022-12-29T04:35:32;97986.44;;;12.17;53.76
48622;BME280;34421;48.944;9.460;2022-12-29T04:37:57;97980.84;;;12.18;53.82
48622;BME280;34421;48.944;9.460;2022-12-29T04:40:23;97977.13;;;12.19;53.58
48622;BME280;34421;48.944;9.460;2022-12-29T04:42:49;97973.19;;;12.22;53.77
48622;BME280;34421;48.944;9.460;2022-12-29T04:45:15;97967.84;;;12.22;54.23
48622;BME280;34421;48.944;9.460;2022-12-29T04:47:40;97966.22;;;12.21;54.13
48622;BME280;34421;48.944;9.460;2022-12-29T04:50:06;97970.75;;;12.20;54.57
48622;BME280;34421;48.944;9.460;2022-12-29T04:52:31;97957.88;;;12.17;54.10
48622;BME280;34421;48.944;9.460;2022-12-29T04:54:56;97953.34;;;12.06;54.13
48622;BME280;34421;48.944;9.460;2022-12-29T04:57:22;97949.06;;;11.93;55.39
48622;BME280;34421;48.944;9.460;2022-12-29T04:59:47;97955.78;;;11.84;55.33
48622;BME280;34421;48.944;9.460;2022-12-29T05:02:12;97946.44;;;11.75;55.16
48622;BME280;34421;48.944;9.460;2022-12-29T05:04:37;97944.16;;;11.67;56.04
48622;BME280;34421;48.944;9.460;2022-12-29T05:07:03;97951.41;;;11.59;55.77
48622;BME280;34421;48.944;9.460;2022-12-29T05:09:28;97949.69;;;11.53;56.09
48622;BME280;34421;48.944;9.460;2022-12-29T05:11:55;97948.88;;;11.53;56.83
48622;BME280;34421;48.944;9.460;2022-12-29T05:14:20;97943.19;;;11.49;56.78
48622;BME280;34421;48.944;9.460;2022-12-29T05:16:45;97944.69;;;11.45;56.84
48622;BME280;34421;48.944;9.460;2022-12-29T05:19:11;97937.59;;;11.39;57.20
48622;BME280;34421;48.944;9.460;2022-12-29T05:21:36;97937.47;;;11.34;57.19
48622;BME280;34421;48.944;9.460;2022-12-29T05:24:01;97933.06;;;11.28;58.08
48622;BME280;34421;48.944;9.460;2022-12-29T05:26:26;97927.72;;;11.28;57.80
48622;BME280;34421;48.944;9.460;2022-12-29T05:28:52;97924.69;;;11.24;57.75
48622;BME280;34421;48.944;9.460;2022-12-29T05:31:17;97928.06;;;11.20;58.72
48622;BME280;34421;48.944;9.460;2022-12-29T05:33:43;97923.97;;;11.17;57.98
48622;BME280;34421;48.944;9.460;2022-12-29T05:36:09;97920.97;;;11.13;58.37
48622;BME280;34421;48.944;9.460;2022-12-29T05:38:35;97935.34;;;11.12;59.47
48622;BME280;34421;48.944;9.460;2022-12-29T05:41:00;97938.00;;;11.12;58.72
48622;BME280;34421;48.944;9.460;2022-12-29T05:43:25;97944.94;;;11.13;59.27
48622;BME280;34421;48.944;9.460;2022-12-29T05:45:51;97955.16;;;11.16;59.08
48622;BME280;34421;48.944;9.460;2022-12-29T05:48:17;97953.06;;;11.18;58.68
48622;BME280;34421;48.944;9.460;2022-12-29T05:50:42;97942.78;;;11.22;59.25
48622;BME280;34421;48.944;9.460;2022-12-29T05:53:11;97932.91;;;11.23;59.68
48622;BME280;34421;48.944;9.460;2022-12-29T05:55:36;97947.28;;;11.22;59.24
48622;BME280;34421;48.944;9.460;2022-12-29T05:58:02;97936.25;;;11.18;59.86
48622;BME280;34421;48.944;9.460;2022-12-29T06:00:27;97945.28;;;11.17;59.61
48622;BME280;34421;48.944;9.460;2022-12-29T06:02:52;97944.84;;;11.20;59.53
48622;BME280;34421;48.944;9.460;2022-12-29T06:05:18;97943.47;;;11.29;60.16
48622;BME280;34421;48.944;9.460;2022-12-29T06:07:43;97939.69;;;11.37;59.08
48622;BME280;34421;48.944;9.460;2022-12-29T06:10:09;97935.06;;;11.44;59.08
48622;BME280;34421;48.944;9.460;2022-12-29T06:12:35;97936.69;;;11.45;59.11
48622;BME280;34421;48.944;9.460;2022-12-29T06:15:00;97927.66;;;11.46;59.61
48622;BME280;34421;48.944;9.460;2022-12-29T06:17:25;97921.97;;;11.43;58.49
48622;BME280;34421;48.944;9.460;2022-12-29T06:19:51;97918.13;;;11.38;59.24
48622;BME280;34421;48.944;9.460;2022-12-29T06:22:16;97927.84;;;11.33;59.49
48622;BME280;34421;48.944;9.460;2022-12-29T06:24:42;97925.41;;;11.31;59.42
48622;BME280;34421;48.944;9.460;2022-12-29T06:27:07;97927.47;;;11.29;59.73
48622;BME280;34421;48.944;9.460;2022-12-29T06:29:32;97933.16;;;11.33;58.84
48622;BME280;34421;48.944;9.460;2022-12-29T06:31:58;97938.03;;;11.36;58.78
48622;BME280;34421;48.944;9.460;2022-12-29T06:34:26;97937.38;;;11.40;59.12
48622;BME280;34421;48.944;9.460;2022-12-29T06:36:51;97932.19;;;11.46;58.82
48622;BME280;34421;48.944;9.460;2022-12-29T06:39:17;97941.91;;;11.52;58.83
48622;BME280;34421;48.944;9.460;2022-12-29T06:41:42;97952.94;;;11.55;58.66
48622;BME280;34421;48.944;9.460;2022-12-29T06:44:07;97945.06;;;11.60;57.94
48622;BME280;34421;48.944;9.460;2022-12-29T06:46:33;97937.16;;;11.66;57.93
48622;BME280;34421;48.944;9.460;2022-12-29T06:48:58;97935.69;;;11.70;58.06
48622;BME280;34421;48.944;9.460;2022-12-29T06:51:23;97941.13;;;11.75;58.14
48622;BME280;34421;48.944;9.460;2022-12-29T06:53:49;97938.59;;;11.80;58.54
48622;BME280;34421;48.944;9.460;2022-12-29T06:56:14;97937.31;;;11.82;57.77
48622;BME280;34421;48.944;9.460;2022-12-29T06:58:39;97941.16;;;11.86;57.30
48622;BME280;34421;48.944;9.460;2022-12-29T07:01:05;97934.56;;;11.89;56.92
48622;BME280;34421;48.944;9.460;2022-12-29T07:03:30;97936.75;;;11.92;56.69
48622;BME280;34421;48.944;9.460;2022-12-29T07:05:55;97934.69;;;11.94;56.30
48622;BME280;34421;48.944;9.460;2022-12-29T07:08:23;97939.56;;;11.97;56.04
48622;BME280;34421;48.944;9.460;2022-12-29T07:10:48;97941.53;;;12.02;56.70
48622;BME280;34421;48.944;9.460;2022-12-29T07:13:14;97937.81;;;12.03;56.34
48622;BME280;34421;48.944;9.460;2022-12-29T07:15:39;97951.50;;;12.06;56.16
48622;BME280;34421;48.944;9.460;2022-12-29T07:18:04;97938.97;;;12.07;56.25
48622;BME280;34421;48.944;9.460;2022-12-29T07:20:30;97943.03;;;12.09;55.70
48622;BME280;34421;48.944;9.460;2022-12-29T07:22:57;97938.03;;;12.13;55.24
48622;BME280;34421;48.944;9.460;2022-12-29T07:25:22;97938.41;;;12.17;55.71
48622;BME280;34421;48.944;9.460;2022-12-29T07:27:48;97933.63;;;12.19;55.22
48622;BME280;34421;48.944;9.460;2022-12-29T07:30:14;97927.25;;;12.20;55.58
48622;BME280;34421;48.944;9.460;2022-12-29T07:32:40;97943.81;;;12.22;54.74
48622;BME280;34421;48.944;9.460;2022-12-29T07:35:05;97948.94;;;12.23;54.99
48622;BME280;34421;48.944;9.460;2022-12-29T07:37:31;97945.56;;;12.28;55.36
48622;BME280;34421;48.944;9.460;2022-12-29T07:39:56;97948.81;;;12.30;54.75
48622;BME280;34421;48.944;9.460;2022-12-29T07:42:21;97944.88;;;12.32;55.50
48622;BME280;34421;48.944;9.460;2022-12-29T07:44:47;97953.22;;;12.36;54.79
48622;BME280;34421;48.944;9.460;2022-12-29T07:47:12;97943.13;;;12.38;55.02
48622;BME280;34421;48.944;9.460;2022-12-29T07:49:37;97949.84;;;12.41;54.73
48622;BME280;34421;48.944;9.460;2022-12-29T07:52:03;97948.59;;;12.43;54.86
48622;BME280;34421;48.944;9.460;2022-12-29T07:54:28;97933.38;;;12.44;53.86
48622;BME280;34421;48.944;9.460;2022-12-29T07:56:53;97937.91;;;12.43;54.47
48622;BME280;34421;48.944;9.460;2022-12-29T07:59:19;97951.81;;;12.45;55.10
48622;BME280;34421;48.944;9.460;2022-12-29T08:01:44;97939.84;;;12.48;54.35
48622;BME280;34421;48.944;9.460;2022-12-29T08:04:10;97954.81;;;12.49;54.31
48622;BME280;34421;48.944;9.460;2022-12-29T08:06:35;97953.88;;;12.55;54.34
48622;BME280;34421;48.944;9.460;2022-12-29T08:09:03;97956.66;;;12.60;54.65
48622;BME280;34421;48.944;9.460;2022-12-29T08:11:28;97959.78;;;12.69;54.61
48622;BME280;34421;48.944;9.460;2022-12-29T08:13:53;97954.22;;;12.70;54.17
48622;BME280;34421;48.944;9.460;2022-12-29T08:16:19;97966.25;;;12.73;53.86
48622;BME280;34421;48.944;9.460;2022-12-29T08:18:44;97961.75;;;12.73;54.23
48622;BME280;34421;48.944;9.460;2022-12-29T08:21:09;97964.41;;;12.73;53.89
48622;BME280;34421;48.944;9.460;2022-12-29T08:23:35;97965.81;;;12.76;53.62
48622;BME280;34421;48.944;9.460;2022-12-29T08:26:04;97974.63;;;12.76;54.65
48622;BME280;34421;48.944;9.460;2022-12-29T08:28:31;97966.63;;;12.76;53.99
48622;BME280;34421;48.944;9.460;2022-12-29T08:30:58;97971.97;;;12.76;54.21
48622;BME280;34421;48.944;9.460;2022-12-29T08:33:24;97970.91;;;12.77;54.19
48622;BME280;34421;48.944;9.460;2022-12-29T08:35:49;97968.47;;;12.76;54.16
48622;BME280;34421;48.944;9.460;2022-12-29T08:38:14;97973.34;;;12.79;54.10
48622;BME280;34421;48.944;9.460;2022-12-29T08:40:40;97968.56;;;12.81;54.27
48622;BME280;34421;48.944;9.460;2022-12-29T08:43:05;97970.75;;;12.84;53.26
48622;BME280;34421;48.944;9.460;2022-12-29T08:45:31;97971.56;;;12.85;53.53
48622;BME280;34421;48.944;9.460;2022-12-29T08:47:56;97963.91;;;12.88;54.38
48622;BME280;34421;48.944;9.460;2022-12-29T08:50:22;97962.16;;;12.94;53.65
48622;BME280;34421;48.944;9.460;2022-12-29T08:52:47;97951.53;;;12.99;53.58
48622;BME280;34421;48.944;9.460;2022-12-29T08:55:12;97958.28;;;13.02;53.44
48622;BME280;34421;48.944;9.460;2022-12-29T08:57:38;97962.34;;;13.04;53.77
48622;BME280;34421;48.944;9.460;2022-12-29T09:00:04;97964.19;;;13.04;53.89
48622;BME280;34421;48.944;9.460;2022-12-29T09:02:30;97965.81;;;13.05;53.53
48622;BME280;34421;48.944;9.460;2022-12-29T09:04:55;97975.22;;;13.07;53.79
48622;BME280;34421;48.944;9.460;2022-12-29T09:07:22;97977.41;;;13.10;53.27
48622;BME280;34421;48.944;9.460;2022-12-29T09:09:48;97989.50;;;13.13;52.82
48622;BME280;34421;48.944;9.460;2022-12-29T09:12:13;97983.91;;;13.14;53.62
48622;BME280;34421;48.944;9.460;2022-12-29T09:14:38;97995.97;;;13.17;52.84
48622;BME280;34421;48.944;9.460;2022-12-29T09:17:04;97994.69;;;13.19;53.34
48622;BME280;34421;48.944;9.460;2022-12-29T09:19:48;97997.16;;;13.21;53.48
48622;BME280;34421;48.944;9.460;2022-12-29T09:22:13;98005.72;;;13.23;52.73
48622;BME280;34421;48.944;9.460;2022-12-29T09:24:39;98008.16;;;13.25;52.74
48622;BME280;34421;48.944;9.460;2022-12-29T09:27:04;97998.31;;;13.25;53.09
48622;BME280;34421;48.944;9.460;2022-12-29T09:29:29;98000.50;;;13.28;52.59
48622;BME280;34421;48.944;9.460;2022-12-29T09:31:55;97999.44;;;13.29;52.80
48622;BME280;34421;48.944;9.460;2022-12-29T09:34:20;98003.97;;;13.29;52.79
48622;BME280;34421;48.944;9.460;2022-12-29T09:36:45;98009.66;;;13.32;53.21
48622;BME280;34421;48.944;9.460;2022-12-29T09:39:12;98008.03;;;13.31;53.41
48622;BME280;34421;48.944;9.460;2022-12-29T09:41:44;97999.31;;;13.36;52.73
48622;BME280;34421;48.944;9.460;2022-12-29T09:44:23;97998.09;;;13.43;53.10
48622;BME280;34421;48.944;9.460;2022-12-29T09:46:52;98006.22;;;13.49;52.87
48622;BME280;34421;48.944;9.460;2022-12-29T09:49:43;97999.28;;;13.48;52.46
48622;BME280;34421;48.944;9.460;2022-12-29T09:52:16;97993.66;;;13.49;52.32
48622;BME280;34421;48.944;9.460;2022-12-29T09:57:34;97993.75;;;13.71;52.36
48622;BME280;34421;48.944;9.460;2022-12-29T10:00:11;97998.16;;;13.77;52.37
48622;BME280;34421;48.944;9.460;2022-12-29T10:05:48;97997.75;;;14.02;51.37
48622;BME280;34421;48.944;9.460;2022-12-29T10:16:58;97979.94;;;14.64;50.40
48622;BME280;34421;48.944;9.460;2022-12-29T10:19:43;97988.78;;;14.47;50.81
48622;BME280;34421;48.944;9.460;2022-12-29T10:24:49;98000.56;;;14.29;51.50
48622;BME280;34421;48.944;9.460;2022-12-29T10:27:17;98001.31;;;14.25;52.11
48622;BME280;34421;48.944;9.460;2022-12-29T10:29:48;97993.22;;;14.20;51.93
48622;BME280;34421;48.944;9.460;2022-12-29T10:34:47;97992.31;;;14.14;52.16
48622;BME280;34421;48.944;9.460;2022-12-29T10:37:29;98010.97;;;14.09;51.61
48622;BME280;34421;48.944;9.460;2022-12-29T10:39:56;97985.25;;;14.08;52.05
48622;BME280;34421;48.944;9.460;2022-12-29T10:42:27;97986.69;;;14.16;52.83
48622;BME280;34421;48.944;9.460;2022-12-29T10:44:56;97977.94;;;14.20;53.21
48622;BME280;34421;48.944;9.460;2022-12-29T10:47:25;97989.72;;;14.19;52.94
48622;BME280;34421;48.944;9.460;2022-12-29T10:49:52;97981.44;;;14.21;52.54
48622;BME280;34421;48.944;9.460;2022-12-29T10:52:19;97979.56;;;14.21;52.60
48622;BME280;34421;48.944;9.460;2022-12-29T10:54:51;97976.88;;;14.21;52.90
48622;BME280;34421;48.944;9.460;2022-12-29T10:57:39;97985.91;;;14.15;52.25
48622;BME280;34421;48.944;9.460;2022-12-29T11:00:17;97984.28;;;14.14;52.80
48622;BME280;34421;48.944;9.460;2022-12-29T11:08:12;97994.50;;;14.17;53.67
48622;BME280;34421;48.944;9.460;2022-12-29T11:10:39;97998.06;;;14.23;53.57
48622;BME280;34421;48.944;9.460;2022-12-29T11:15:44;97975.69;;;14.68;52.84
48622;BME280;34421;48.944;9.460;2022-12-29T11:20:44;97982.84;;;14.62;52.83
48622;BME280;34421;48.944;9.460;2022-12-29T11:23:33;97991.06;;;14.77;52.59
48622;BME280;34421;48.944;9.460;2022-12-29T11:26:18;97991.50;;;15.13;52.08
48622;BME280;34421;48.944;9.460;2022-12-29T11:28:47;97990.59;;;15.30;51.46
48622;BME280;34421;48.944;9.460;2022-12-29T11:31:28;97983.28;;;15.47;50.85
48622;BME280;34421;48.944;9.460;2022-12-29T11:33:54;97988.38;;;15.48;50.63
48622;BME280;34421;48.944;9.460;2022-12-29T11:36:22;97984.03;;;15.42;50.66
48622;BME280;34421;48.944;9.460;2022-12-29T11:38:50;97991.78;;;15.39;50.71
48622;BME280;34421;48.944;9.460;2022-12-29T11:41:24;97996.47;;;15.26;51.03
48622;BME280;34421;48.944;9.460;2022-12-29T11:43:51;97985.94;;;15.20;51.75
48622;BME280;34421;48.944;9.460;2022-12-29T11:46:22;97989.88;;;15.12;51.38
48622;BME280;34421;48.944;9.460;2022-12-29T11:48:49;97978.84;;;15.09;51.46
48622;BME280;34421;48.944;9.460;2022-12-29T11:51:34;97977.69;;;14.99;51.41
48622;BME280;34421;48.944;9.460;2022-12-29T11:54:04;97975.16;;;14.93;51.83
48622;BME280;34421;48.944;9.460;2022-12-29T11:56:41;97966.72;;;14.79;51.79
48622;BME280;34421;48.944;9.460;2022-12-29T12:02:00;97989.97;;;14.73;52.07
48622;BME280;34421;48.944;9.460;2022-12-29T12:04:30;97992.63;;;14.73;52.74
48622;BME280;34421;48.944;9.460;2022-12-29T12:07:15;97985.53;;;14.62;53.08
48622;BME280;34421;48.944;9.460;2022-12-29T12:09:47;97975.16;;;14.49;53.36
48622;BME280;34421;48.944;9.460;2022-12-29T12:12:24;97971.91;;;14.47;53.45
48622;BME280;34421;48.944;9.460;2022-12-29T12:14:58;97974.50;;;14.42;53.75
48622;BME280;34421;48.944;9.460;2022-12-29T12:20:14;97986.28;;;14.24;53.56
48622;BME280;34421;48.944;9.460;2022-12-29T12:22:46;97985.97;;;14.20;53.28
48622;BME280;34421;48.944;9.460;2022-12-29T12:27:56;97997.03;;;14.07;53.00
48622;BME280;34421;48.944;9.460;2022-12-29T12:30:26;97997.75;;;14.02;53.48
48622;BME280;34421;48.944;9.460;2022-12-29T12:35:41;98008.38;;;13.97;53.71
48622;BME280;34421;48.944;9.460;2022-12-29T12:38:53;98000.59;;;13.96;54.21
48622;BME280;34421;48.944;9.460;2022-12-29T12:41:41;97993.47;;;13.84;55.42
48622;BME280;34421;48.944;9.460;2022-12-29T12:49:42;97983.56;;;14.02;56.55
48622;BME280;34421;48.944;9.460;2022-12-29T12:55:26;97970.19;;;14.02;56.67
48622;BME280;34421;48.944;9.460;2022-12-29T12:58:12;97971.78;;;14.03;57.25
48622;BME280;34421;48.944;9.460;2022-12-29T13:06:47;97966.34;;;14.31;56.77
48622;BME280;34421;48.944;9.460;2022-12-29T13:12:13;97955.75;;;14.42;56.16
48622;BME280;34421;48.944;9.460;2022-12-29T13:25:51;97959.16;;;14.54;56.58
48622;BME280;34421;48.944;9.460;2022-12-29T13:28:25;97956.94;;;14.51;56.48
48622;BME280;34421;48.944;9.460;2022-12-29T13:31:04;97953.66;;;14.44;57.12
48622;BME280;34421;48.944;9.460;2022-12-29T13:38:48;97938.00;;;14.35;57.09
48622;BME280;34421;48.944;9.460;2022-12-29T13:41:39;97945.94;;;14.30;57.16
48622;BME280;34421;48.944;9.460;2022-12-29T13:44:04;97937.91;;;14.30;57.76
48622;BME280;34421;48.944;9.460;2022-12-29T13:46:38;97938.50;;;14.32;57.82
48622;BME280;34421;48.944;9.460;2022-12-29T13:49:10;97944.59;;;14.28;57.35
48622;BME280;34421;48.944;9.460;2022-12-29T13:51:42;97936.97;;;14.20;58.40
48622;BME280;34421;48.944;9.460;2022-12-29T13:56:39;97937.09;;;14.08;58.46
48622;BME280;34421;48.944;9.460;2022-12-29T13:59:21;97942.84;;;14.00;59.14
48622;BME280;34421;48.944;9.460;2022-12-29T14:02:26;97936.28;;;13.90;59.19
48622;BME280;34421;48.944;9.460;2022-12-29T14:05:01;97945.28;;;13.84;59.13
48622;BME280;34421;48.944;9.460;2022-12-29T14:07:28;97942.03;;;13.82;59.81
48622;BME280;34421;48.944;9.460;2022-12-29T14:09:56;97942.78;;;13.78;59.74
48622;BME280;34421;48.944;9.460;2022-12-29T14:12:46;97937.13;;;13.74;59.51
48622;BME280;34421;48.944;9.460;2022-12-29T14:15:15;97942.38;;;13.69;59.73
48622;BME280;34421;48.944;9.460;2022-12-29T14:17:44;97945.28;;;13.67;60.03
48622;BME280;34421;48.944;9.460;2022-12-29T14:20:24;97950.91;;;13.66;59.93
48622;BME280;34421;48.944;9.460;2022-12-29T14:23:01;97953.31;;;13.67;59.67
48622;BME280;34421;48.944;9.460;2022-12-29T14:31:52;97957.53;;;13.63;60.11
48622;BME280;34421;48.944;9.460;2022-12-29T14:37:03;97960.75;;;13.49;60.27
48622;BME280;34421;48.944;9.460;2022-12-29T14:44:28;97968.25;;;13.35;60.63
48622;BME280;34421;48.944;9.460;2022-12-29T14:49:21;97966.22;;;13.25;61.39
48622;BME280;34421;48.944;9.460;2022-12-29T14:51:49;97970.41;;;13.21;61.18
48622;BME280;34421;48.944;9.460;2022-12-29T14:57:00;97964.47;;;13.19;61.91
48622;BME280;34421;48.944;9.460;2022-12-29T14:59:27;97970.31;;;13.16;62.11
48622;BME280;34421;48.944;9.460;2022-12-29T15:01:55;97968.13;;;13.13;62.38
48622;BME280;34421;48.944;9.460;2022-12-29T15:04:25;97957.66;;;13.11;62.29
48622;BME280;34421;48.944;9.460;2022-12-29T15:06:52;97959.78;;;13.09;62.48
48622;BME280;34421;48.944;9.460;2022-12-29T15:09:28;97964.75;;;13.06;62.62
48622;BME280;34421;48.944;9.460;2022-12-29T15:11:59;97957.81;;;13.05;62.23
48622;BME280;34421;48.944;9.460;2022-12-29T15:14:36;97958.84;;;13.04;62.73